sensor_id;sensor_type;location;lat;lon;timestamp;pressure;altitude;pressure_sealevel;temperature;humidity
55317;BME280;41178;48.956;8.130;2024-02-26T13:34:47;98449.69;;;6.97;62.89
55317;BME280;41178;48.956;8.130;2024-02-26T13:39:49;98442.19;;;8.66;58.14
55317;BME280;41178;48.956;8.130;2024-02-26T13:44:51;98478.91;;;9.37;56.38
55317;BME280;41178;48.956;8.130;2024-02-26T13:49:53;98479.13;;;9.09;57.63
55317;BME280;41178;48.956;8.130;2024-02-26T13:54:55;98454.44;;;10.12;54.84
55317;BME280;41178;48.956;8.130;2024-02-26T13:59:56;98454.53;;;9.92;55.99
55317;BME280;41178;48.956;8.130;2024-02-26T14:04:58;98471.22;;;10.26;55.06
55317;BME280;41178;48.956;8.130;2024-02-26T14:10:00;98459.56;;;10.78;52.15
55317;BME280;41178;48.956;8.130;2024-02-26T14:15:03;98433.28;;;11.55;50.07
55317;BME280;41178;48.956;8.130;2024-02-26T14:20:07;98432.69;;;11.90;49.06
55317;BME280;41178;48.956;8.130;2024-02-26T14:25:10;98465.56;;;10.98;49.51
55317;BME280;41178;48.956;8.130;2024-02-26T14:30:12;98481.78;;;11.03;50.20
55317;BME280;41178;48.956;8.130;2024-02-26T14:35:14;98472.91;;;10.84;51.08
55317;BME280;41178;48.956;8.130;2024-02-26T14:40:18;98523.75;;;10.46;50.36
55317;BME280;41178;48.956;8.130;2024-02-26T14:45:20;98557.31;;;10.42;49.58
55317;BME280;41178;48.956;8.130;2024-02-26T14:50:22;98557.56;;;10.72;49.96
55317;BME280;41178;48.956;8.130;2024-02-26T14:55:23;98498.88;;;11.53;49.57
55317;BME280;41178;48.956;8.130;2024-02-26T15:05:21;98503.38;;;10.51;51.84
55317;BME280;41178;48.956;8.130;2024-02-26T15:10:22;98381.91;;;12.37;50.51
55317;BME280;41178;48.956;8.130;2024-02-26T15:15:24;98410.63;;;13.67;46.43
55317;BME280;41178;48.956;8.130;2024-02-26T15:20:26;98481.88;;;12.45;46.49
55317;BME280;41178;48.956;8.130;2024-02-26T15:25:27;98516.81;;;11.89;46.75
55317;BME280;41178;48.956;8.130;2024-02-26T15:30:29;98549.78;;;11.02;47.96
55317;BME280;41178;48.956;8.130;2024-02-26T15:35:31;98499.22;;;11.38;47.77
55317;BME280;41178;48.956;8.130;2024-02-26T15:40:32;98463.03;;;12.51;46.57
55317;BME280;41178;48.956;8.130;2024-02-26T15:45:34;98449.56;;;12.93;46.61
55317;BME280;41178;48.956;8.130;2024-02-26T15:50:36;98492.81;;;12.62;47.00
55317;BME280;41178;48.956;8.130;2024-02-26T15:55:39;98526.44;;;11.78;47.51
55317;BME280;41178;48.956;8.130;2024-02-26T16:00:42;98542.22;;;11.68;47.29
55317;BME280;41178;48.956;8.130;2024-02-26T16:05:44;98539.81;;;12.34;46.32
55317;BME280;41178;48.956;8.130;2024-02-26T16:10:46;98536.72;;;12.18;46.64
55317;BME280;41178;48.956;8.130;2024-02-26T16:15:56;98539.50;;;12.42;46.22
55317;BME280;41178;48.956;8.130;2024-02-26T16:21:00;98519.44;;;12.45;46.35
55317;BME280;41178;48.956;8.130;2024-02-26T16:26:01;98562.75;;;11.93;46.38
55317;BME280;41178;48.956;8.130;2024-02-26T16:31:03;98593.09;;;11.18;47.56
55317;BME280;41178;48.956;8.130;2024-02-26T16:36:05;98547.13;;;11.71;46.94
55317;BME280;41178;48.956;8.130;2024-02-26T16:41:07;98584.31;;;11.61;46.07
55317;BME280;41178;48.956;8.130;2024-02-26T16:46:08;98535.41;;;12.70;45.28
55317;BME280;41178;48.956;8.130;2024-02-26T16:51:10;98560.06;;;12.30;45.57
55317;BME280;41178;48.956;8.130;2024-02-26T16:56:13;98559.09;;;13.15;44.08
55317;BME280;41178;48.956;8.130;2024-02-26T17:01:14;98591.97;;;12.57;44.72
55317;BME280;41178;48.956;8.130;2024-02-26T17:06:16;98554.53;;;12.43;45.77
55317;BME280;41178;48.956;8.130;2024-02-26T17:11:18;98535.50;;;13.05;45.27
55317;BME280;41178;48.956;8.130;2024-02-26T17:16:20;98597.31;;;12.19;46.54
55317;BME280;41178;48.956;8.130;2024-02-26T17:21:23;98620.31;;;11.72;46.91
55317;BME280;41178;48.956;8.130;2024-02-26T17:26:25;98575.22;;;12.24;46.62
55317;BME280;41178;48.956;8.130;2024-02-26T17:31:27;98641.81;;;11.01;47.72
55317;BME280;41178;48.956;8.130;2024-02-26T17:36:31;98607.19;;;11.63;47.59
55317;BME280;41178;48.956;8.130;2024-02-26T17:41:33;98638.75;;;11.55;47.10
55317;BME280;41178;48.956;8.130;2024-02-26T17:46:34;98612.81;;;11.99;45.94
55317;BME280;41178;48.956;8.130;2024-02-26T17:51:36;98637.44;;;11.14;48.23
55317;BME280;41178;48.956;8.130;2024-02-26T17:56:38;98689.56;;;10.46;49.78
55317;BME280;41178;48.956;8.130;2024-02-26T18:01:40;98600.75;;;10.30;52.92
55317;BME280;41178;48.956;8.130;2024-02-26T18:06:41;98604.13;;;10.58;53.19
55317;BME280;41178;48.956;8.130;2024-02-26T18:11:45;98528.53;;;11.07;53.05
55317;BME280;41178;48.956;8.130;2024-02-26T18:16:47;98556.41;;;10.93;53.04
55317;BME280;41178;48.956;8.130;2024-02-26T18:21:49;98593.81;;;10.61;52.98
55317;BME280;41178;48.956;8.130;2024-02-26T18:26:51;98543.59;;;11.27;51.78
55317;BME280;41178;48.956;8.130;2024-02-26T18:31:54;98652.84;;;10.14;53.21
55317;BME280;41178;48.956;8.130;2024-02-26T18:36:55;98575.94;;;11.00;52.30
55317;BME280;41178;48.956;8.130;2024-02-26T18:41:57;98586.69;;;10.94;51.97
55317;BME280;41178;48.956;8.130;2024-02-26T18:47:00;98666.53;;;10.45;52.11
55317;BME280;41178;48.956;8.130;2024-02-26T18:52:03;98635.63;;;9.50;54.48
55317;BME280;41178;48.956;8.130;2024-02-26T18:57:05;98590.06;;;10.30;53.34
55317;BME280;41178;48.956;8.130;2024-02-26T19:02:07;98632.69;;;10.12;52.84
55317;BME280;41178;48.956;8.130;2024-02-26T19:07:09;98645.66;;;9.75;53.66
55317;BME280;41178;48.956;8.130;2024-02-26T19:12:10;98598.63;;;10.91;51.49
55317;BME280;41178;48.956;8.130;2024-02-26T19:17:12;98681.84;;;10.04;52.34
55317;BME280;41178;48.956;8.130;2024-02-26T19:22:14;98617.38;;;10.39;52.62
55317;BME280;41178;48.956;8.130;2024-02-26T19:27:18;98656.69;;;10.39;51.99
55317;BME280;41178;48.956;8.130;2024-02-26T19:32:20;98665.22;;;9.75;53.46
55317;BME280;41178;48.956;8.130;2024-02-26T19:37:22;98645.03;;;10.06;52.71
55317;BME280;41178;48.956;8.130;2024-02-26T19:42:25;98651.44;;;9.85;53.03
55317;BME280;41178;48.956;8.130;2024-02-26T19:47:27;98655.31;;;10.16;52.30
55317;BME280;41178;48.956;8.130;2024-02-26T19:52:29;98619.34;;;11.09;50.46
55317;BME280;41178;48.956;8.130;2024-02-26T19:57:31;98621.84;;;11.04;50.87
55317;BME280;41178;48.956;8.130;2024-02-26T20:02:33;98694.97;;;10.26;51.89
55317;BME280;41178;48.956;8.130;2024-02-26T20:07:36;98737.31;;;9.62;53.07
55317;BME280;41178;48.956;8.130;2024-02-26T20:12:38;98680.28;;;10.62;51.13
55317;BME280;41178;48.956;8.130;2024-02-26T20:17:40;98750.31;;;9.99;51.95
55317;BME280;41178;48.956;8.130;2024-02-26T20:22:41;98759.16;;;10.12;51.23
55317;BME280;41178;48.956;8.130;2024-02-26T20:27:43;98769.81;;;9.79;51.52
55317;BME280;41178;48.956;8.130;2024-02-26T20:32:45;98708.72;;;9.43;53.06
55317;BME280;41178;48.956;8.130;2024-02-26T20:37:46;98751.41;;;8.74;54.14
55317;BME280;41178;48.956;8.130;2024-02-26T20:42:48;98730.91;;;8.81;54.12
55317;BME280;41178;48.956;8.130;2024-02-26T20:47:50;98740.81;;;8.88;53.89
55317;BME280;41178;48.956;8.130;2024-02-26T20:52:53;98649.31;;;10.14;51.90
55317;BME280;41178;48.956;8.130;2024-02-26T20:57:54;98673.44;;;10.01;52.05
55317;BME280;41178;48.956;8.130;2024-02-26T21:02:58;98744.06;;;9.51;52.19
55317;BME280;41178;48.956;8.130;2024-02-26T21:07:59;98714.47;;;10.53;50.86
55317;BME280;41178;48.956;8.130;2024-02-26T21:13:02;98803.16;;;10.10;50.48
55317;BME280;41178;48.956;8.130;2024-02-26T21:18:04;98771.63;;;9.52;52.31
55317;BME280;41178;48.956;8.130;2024-02-26T21:23:06;98755.84;;;9.84;51.73
55317;BME280;41178;48.956;8.130;2024-02-26T21:28:10;98799.00;;;9.12;52.84
55317;BME280;41178;48.956;8.130;2024-02-26T21:33:12;98787.34;;;9.27;52.42
55317;BME280;41178;48.956;8.130;2024-02-26T21:38:14;98749.81;;;9.48;52.45
55317;BME280;41178;48.956;8.130;2024-02-26T21:43:16;98736.34;;;9.83;51.65
55317;BME280;41178;48.956;8.130;2024-02-26T21:48:19;98750.03;;;10.67;49.75
55317;BME280;41178;48.956;8.130;2024-02-26T21:53:20;98774.75;;;10.36;50.49
55317;BME280;41178;48.956;8.130;2024-02-26T21:58:23;98817.31;;;10.64;49.87
55317;BME280;41178;48.956;8.130;2024-02-26T22:03:25;98846.13;;;10.62;49.69
55317;BME280;41178;48.956;8.130;2024-02-26T22:08:27;98840.97;;;10.87;49.06
55317;BME280;41178;48.956;8.130;2024-02-26T22:13:28;98855.97;;;9.94;50.93
55317;BME280;41178;48.956;8.130;2024-02-26T22:18:30;98943.16;;;10.09;49.21
55317;BME280;41178;48.956;8.130;2024-02-26T22:23:32;98773.34;;;11.89;47.79
55317;BME280;41178;48.956;8.130;2024-02-26T22:28:34;98871.66;;;10.84;48.69
55317;BME280;41178;48.956;8.130;2024-02-26T22:33:36;98840.69;;;11.15;48.77
55317;BME280;41178;48.956;8.130;2024-02-26T22:38:38;98929.47;;;10.45;49.28
55317;BME280;41178;48.956;8.130;2024-02-26T22:43:40;98886.28;;;10.55;49.61
55317;BME280;41178;48.956;8.130;2024-02-26T22:48:42;98905.19;;;10.47;49.39
55317;BME280;41178;48.956;8.130;2024-02-26T22:53:43;98839.13;;;10.61;50.09
55317;BME280;41178;48.956;8.130;2024-02-26T22:58:45;98927.75;;;9.98;50.52
55317;BME280;41178;48.956;8.130;2024-02-26T23:03:47;98931.84;;;9.52;50.67
55317;BME280;41178;48.956;8.130;2024-02-26T23:08:49;98937.13;;;9.03;51.84
55317;BME280;41178;48.956;8.130;2024-02-26T23:13:51;98913.31;;;8.80;52.33
55317;BME280;41178;48.956;8.130;2024-02-26T23:18:53;98911.72;;;9.14;51.54
55317;BME280;41178;48.956;8.130;2024-02-26T23:23:55;98859.38;;;9.13;52.47
55317;BME280;41178;48.956;8.130;2024-02-26T23:28:57;98931.69;;;8.90;51.82
55317;BME280;41178;48.956;8.130;2024-02-26T23:33:59;98914.06;;;8.96;51.59
55317;BME280;41178;48.956;8.130;2024-02-26T23:39:01;98946.56;;;9.06;51.11
55317;BME280;41178;48.956;8.130;2024-02-26T23:44:03;98843.91;;;9.02;52.32
55317;BME280;41178;48.956;8.130;2024-02-26T23:49:05;98889.63;;;8.71;52.26
55317;BME280;41178;48.956;8.130;2024-02-26T23:54:08;98880.97;;;9.18;51.30
55317;BME280;41178;48.956;8.130;2024-02-26T23:59:10;98839.97;;;9.39;51.37
